createdAt,value
2023-04-09T00:01:27.081Z,11.42
2023-04-09T00:03:54.249Z,11.07
2023-04-09T00:06:21.345Z,10.86
2023-04-09T00:08:48.264Z,11.08
2023-04-09T00:11:15.362Z,11.23
2023-04-09T00:13:42.337Z,10.80
2023-04-09T00:16:09.435Z,10.71
2023-04-09T00:18:36.565Z,10.43
2023-04-09T00:21:03.555Z,10.32
2023-04-09T00:23:30.655Z,10.24
2023-04-09T00:25:57.623Z,10.40
2023-04-09T00:28:24.699Z,10.55
2023-04-09T00:30:51.685Z,10.28
2023-04-09T00:33:18.708Z,10.07
2023-04-09T00:35:46.060Z,10.23
2023-04-09T00:38:13.204Z,10.13
2023-04-09T00:40:41.060Z,10.56
2023-04-09T00:43:08.049Z,10.38
2023-04-09T00:45:36.499Z,10.15
2023-04-09T00:48:03.858Z,10.21
2023-04-09T00:50:30.936Z,10.01
2023-04-09T00:52:57.965Z,10.17
2023-04-09T00:55:25.685Z,10.27
2023-04-09T00:57:52.827Z,9.92
2023-04-09T01:00:19.722Z,9.88
2023-04-09T01:02:48.004Z,10.05
2023-04-09T01:05:15.761Z,10.18
2023-04-09T01:08:09.094Z,10.20
2023-04-09T01:11:09.068Z,10.59
2023-04-09T01:14:26.308Z,10.74
2023-04-09T01:17:05.122Z,10.49
2023-04-09T01:20:05.960Z,10.49
2023-04-09T01:22:59.530Z,10.38
2023-04-09T01:26:19.496Z,10.13
2023-04-09T01:28:55.029Z,10.20
2023-04-09T01:31:29.435Z,10.26
2023-04-09T01:33:57.970Z,10.08
2023-04-09T01:36:27.622Z,10.28
2023-04-09T01:38:56.498Z,10.46
2023-04-09T01:41:26.131Z,10.54
2023-04-09T01:43:53.978Z,10.34
2023-04-09T01:46:22.947Z,10.25
2023-04-09T01:48:50.731Z,10.29
2023-04-09T01:51:18.323Z,10.07
2023-04-09T01:53:45.565Z,10.12
2023-04-09T01:56:12.592Z,10.26
2023-04-09T01:58:40.918Z,9.98
2023-04-09T02:01:24.651Z,9.63
2023-04-09T02:03:57.467Z,9.42
2023-04-09T02:06:40.608Z,9.05
2023-04-09T02:09:09.981Z,9.25
2023-04-09T02:11:42.513Z,9.16
2023-04-09T02:14:14.225Z,9.20
2023-04-09T02:16:42.261Z,9.17
2023-04-09T02:19:09.376Z,9.39
2023-04-09T02:21:36.427Z,10.10
2023-04-09T02:24:03.572Z,9.90
2023-04-09T02:26:30.661Z,9.82
2023-04-09T02:28:58.869Z,9.35
2023-04-09T02:31:25.983Z,8.97
2023-04-09T02:33:54.264Z,8.78
2023-04-09T02:36:21.387Z,8.75
2023-04-09T02:38:48.482Z,8.95
2023-04-09T02:41:15.557Z,9.16
2023-04-09T02:43:42.541Z,9.65
2023-04-09T02:46:09.501Z,9.36
2023-04-09T02:48:36.926Z,9.11
2023-04-09T02:51:06.401Z,9.17
2023-04-09T02:53:33.504Z,9.08
2023-04-09T02:56:00.492Z,8.94
2023-04-09T02:58:27.466Z,8.90
2023-04-09T03:00:54.648Z,9.06
2023-04-09T03:03:21.932Z,9.14
2023-04-09T03:05:49.185Z,9.34
2023-04-09T03:08:16.386Z,9.55
2023-04-09T03:10:45.796Z,9.57
2023-04-09T03:13:12.757Z,9.44
2023-04-09T03:15:41.551Z,9.36
2023-04-09T03:18:08.626Z,9.62
2023-04-09T03:20:41.431Z,9.50
2023-04-09T03:23:12.043Z,9.36
2023-04-09T03:25:43.797Z,9.39
2023-04-09T03:28:16.533Z,9.48
2023-04-09T03:30:50.152Z,9.51
2023-04-09T03:33:17.142Z,9.56
2023-04-09T03:35:50.579Z,9.27
2023-04-09T03:38:23.688Z,9.11
2023-04-09T03:40:50.898Z,9.13
2023-04-09T03:43:17.946Z,8.92
2023-04-09T03:45:50.483Z,9.02
2023-04-09T03:48:22.735Z,8.95
2023-04-09T03:50:51.474Z,8.90
2023-04-09T03:53:25.023Z,8.96
2023-04-09T03:55:58.307Z,8.81
2023-04-09T03:58:26.870Z,8.77
2023-04-09T04:00:54.726Z,8.91
2023-04-09T04:03:37.200Z,9.29
2023-04-09T04:06:29.948Z,9.42
2023-04-09T04:09:18.297Z,9.41
2023-04-09T04:11:57.014Z,9.44
2023-04-09T04:14:27.444Z,9.75
2023-04-09T04:17:01.326Z,9.39
2023-04-09T04:19:30.837Z,9.62
2023-04-09T04:21:58.338Z,9.98
2023-04-09T04:24:25.524Z,10.07
2023-04-09T04:26:52.657Z,9.86
2023-04-09T04:29:21.366Z,10.04
2023-04-09T04:31:55.522Z,10.29
2023-04-09T04:34:25.418Z,10.80
2023-04-09T04:37:00.728Z,10.54
2023-04-09T04:39:32.231Z,10.20
2023-04-09T04:42:04.096Z,10.04
2023-04-09T04:44:31.178Z,10.11
2023-04-09T04:47:19.438Z,10.38
2023-04-09T04:49:46.503Z,10.72
2023-04-09T04:52:13.942Z,10.71
2023-04-09T04:54:45.468Z,10.74
2023-04-09T04:57:18.759Z,10.90
2023-04-09T04:59:45.798Z,10.93
2023-04-09T05:02:14.273Z,10.89
2023-04-09T05:05:13.176Z,10.84
2023-04-09T05:07:47.236Z,10.77
2023-04-09T05:10:14.880Z,11.05
2023-04-09T05:12:43.313Z,11.11
2023-04-09T05:15:14.131Z,10.98
2023-04-09T05:17:45.815Z,10.95
2023-04-09T05:20:14.557Z,10.76
2023-04-09T05:23:05.279Z,10.58
2023-04-09T05:25:38.112Z,10.56
2023-04-09T05:28:11.241Z,10.58
2023-04-09T05:30:39.590Z,10.81
2023-04-09T05:33:10.461Z,11.22
2023-04-09T05:35:40.230Z,11.31
2023-04-09T05:38:07.894Z,11.52
2023-04-09T05:40:35.542Z,11.56
2023-04-09T05:43:06.246Z,11.74
2023-04-09T05:45:41.379Z,11.84
2023-04-09T05:48:10.670Z,11.91
2023-04-09T05:50:51.483Z,11.86
2023-04-09T05:53:23.596Z,11.68
2023-04-09T05:55:52.815Z,11.95
2023-04-09T05:58:23.874Z,12.03
2023-04-09T06:00:52.592Z,12.25
2023-04-09T06:03:22.806Z,12.10
2023-04-09T06:05:52.126Z,12.04
2023-04-09T06:08:19.741Z,12.10
2023-04-09T06:10:46.739Z,12.44
2023-04-09T06:13:14.058Z,13.09
2023-04-09T06:15:41.954Z,12.35
2023-04-09T06:18:10.544Z,11.94
2023-04-09T06:20:41.831Z,11.92
2023-04-09T06:23:10.399Z,11.91
2023-04-09T06:25:38.493Z,12.20
2023-04-09T06:28:07.472Z,12.39
2023-04-09T06:30:37.014Z,12.41
2023-04-09T06:33:04.063Z,12.48
2023-04-09T06:35:31.156Z,12.53
2023-04-09T06:37:58.093Z,12.45
2023-04-09T06:40:29.263Z,12.43
2023-04-09T06:42:56.262Z,12.74
2023-04-09T06:45:29.931Z,12.59
2023-04-09T06:47:57.268Z,12.89
2023-04-09T06:50:24.461Z,12.89
2023-04-09T06:52:52.283Z,13.26
2023-04-09T06:55:19.558Z,13.31
2023-04-09T06:57:46.462Z,13.52
2023-04-09T07:00:15.071Z,13.94
2023-04-09T07:02:42.364Z,14.08
2023-04-09T07:05:10.139Z,14.28
2023-04-09T07:07:37.111Z,14.35
2023-04-09T07:10:07.470Z,14.22
2023-04-09T07:12:35.598Z,14.00
2023-04-09T07:15:07.525Z,13.53
2023-04-09T07:17:35.759Z,13.54
2023-04-09T07:20:03.337Z,13.93
2023-04-09T07:22:31.150Z,14.45
2023-04-09T07:24:58.468Z,14.92
2023-04-09T07:27:27.849Z,15.52
2023-04-09T07:29:59.065Z,15.50
2023-04-09T07:32:28.400Z,15.59
2023-04-09T07:34:55.993Z,15.42
2023-04-09T07:37:23.344Z,15.26
2023-04-09T07:39:51.384Z,15.49
2023-04-09T07:42:18.348Z,15.62
2023-04-09T07:44:45.356Z,15.03
2023-04-09T07:47:14.142Z,14.91
2023-04-09T07:49:44.760Z,15.13
2023-04-09T07:52:14.428Z,15.11
2023-04-09T07:54:41.355Z,15.27
2023-04-09T07:57:08.379Z,15.83
2023-04-09T07:59:36.853Z,16.52
2023-04-09T08:02:04.055Z,15.78
2023-04-09T08:04:32.189Z,16.24
2023-04-09T08:06:59.537Z,15.78
2023-04-09T08:09:27.830Z,15.41
2023-04-09T08:11:54.921Z,15.31
2023-04-09T08:14:21.975Z,15.40
2023-04-09T08:16:50.635Z,15.56
2023-04-09T08:19:19.142Z,15.93
2023-04-09T08:21:50.825Z,16.37
2023-04-09T08:24:18.354Z,16.40
2023-04-09T08:26:45.723Z,16.35
2023-04-09T08:29:14.664Z,16.54
2023-04-09T08:31:43.077Z,16.67
2023-04-09T08:34:10.100Z,16.88
2023-04-09T08:36:37.210Z,16.81
2023-04-09T08:39:05.467Z,17.12
2023-04-09T08:41:32.690Z,16.59
2023-04-09T08:44:00.065Z,16.40
2023-04-09T08:46:28.493Z,16.12
2023-04-09T08:48:56.030Z,16.22
2023-04-09T08:51:24.778Z,16.78
2023-04-09T08:54:04.371Z,16.93
2023-04-09T08:56:32.578Z,16.99
2023-04-09T08:59:00.641Z,16.65
2023-04-09T09:01:32.771Z,16.22
2023-04-09T09:04:07.793Z,16.14
2023-04-09T09:06:42.145Z,16.46
2023-04-09T09:09:14.601Z,16.91
2023-04-09T09:11:52.231Z,16.71
2023-04-09T09:14:20.262Z,17.23
2023-04-09T09:16:56.686Z,17.21
2023-04-09T09:19:27.970Z,17.16
2023-04-09T09:22:01.436Z,17.24
2023-04-09T09:24:29.141Z,17.55
2023-04-09T09:26:57.269Z,17.79
2023-04-09T09:29:26.604Z,18.50
2023-04-09T09:31:55.678Z,18.28
2023-04-09T09:34:24.299Z,18.13
2023-04-09T09:36:51.373Z,17.68
2023-04-09T09:39:18.572Z,17.68
2023-04-09T09:41:47.409Z,17.91
2023-04-09T09:44:32.307Z,17.94
2023-04-09T09:46:59.706Z,18.16
2023-04-09T09:49:27.162Z,18.34
2023-04-09T09:52:03.155Z,18.68
2023-04-09T09:54:42.218Z,18.99
2023-04-09T09:57:14.978Z,19.48
2023-04-09T09:59:50.859Z,19.10
2023-04-09T10:02:30.852Z,18.46
2023-04-09T10:05:01.470Z,18.51
2023-04-09T10:07:29.349Z,18.77
2023-04-09T10:09:57.648Z,18.38
2023-04-09T10:12:26.331Z,18.13
2023-04-09T10:14:56.509Z,18.27
2023-04-09T10:17:24.941Z,17.97
2023-04-09T10:20:36.635Z,18.18
2023-04-09T10:23:15.425Z,18.76
2023-04-09T10:25:44.442Z,19.10
2023-04-09T10:28:20.601Z,19.33
2023-04-09T10:30:51.034Z,18.99
2023-04-09T10:33:29.445Z,18.83
2023-04-09T10:36:05.971Z,19.19
2023-04-09T10:38:47.120Z,19.50
2023-04-09T10:41:27.797Z,19.72
2023-04-09T10:43:54.938Z,19.98
2023-04-09T10:46:54.023Z,19.57
2023-04-09T10:49:24.520Z,19.84
2023-04-09T10:51:53.575Z,20.21
2023-04-09T10:54:35.800Z,19.85
2023-04-09T10:57:24.769Z,19.87
2023-04-09T10:59:55.046Z,20.21
2023-04-09T11:02:40.451Z,20.51
2023-04-09T11:05:28.278Z,20.40
2023-04-09T11:08:04.568Z,20.57
2023-04-09T11:10:33.383Z,21.03
2023-04-09T11:13:01.217Z,20.99
2023-04-09T11:15:28.631Z,20.57
2023-04-09T11:17:56.216Z,19.88
2023-04-09T11:20:25.762Z,20.09
2023-04-09T11:22:55.083Z,20.39
2023-04-09T11:25:28.317Z,20.21
2023-04-09T11:27:56.141Z,19.63
2023-04-09T11:30:23.263Z,19.56
2023-04-09T11:32:51.243Z,19.96
2023-04-09T11:35:21.528Z,20.15
2023-04-09T11:37:52.288Z,20.00
2023-04-09T11:40:21.388Z,20.17
2023-04-09T11:42:53.923Z,19.99
2023-04-09T11:45:27.191Z,20.04
2023-04-09T11:47:55.499Z,20.23
2023-04-09T11:50:23.897Z,20.14
2023-04-09T11:52:50.941Z,20.38
2023-04-09T11:55:29.413Z,20.16
2023-04-09T11:58:01.364Z,20.44
2023-04-09T12:00:30.272Z,20.44
2023-04-09T12:03:03.964Z,20.61
2023-04-09T12:05:34.420Z,20.66
2023-04-09T12:08:08.445Z,20.60
2023-04-09T12:10:38.228Z,20.27
2023-04-09T12:13:13.959Z,20.11
2023-04-09T12:15:43.790Z,19.74
2023-04-09T12:18:14.254Z,19.37
2023-04-09T12:20:44.266Z,19.77
2023-04-09T12:23:12.887Z,19.96
2023-04-09T12:25:45.407Z,19.84
2023-04-09T12:28:15.886Z,19.92
2023-04-09T12:30:43.297Z,19.80
2023-04-09T12:33:12.349Z,19.92
2023-04-09T12:35:39.624Z,20.03
2023-04-09T12:38:06.785Z,20.18
2023-04-09T12:40:37.198Z,20.44
2023-04-09T12:43:04.737Z,20.62
2023-04-09T12:45:32.171Z,20.75
2023-04-09T12:47:59.472Z,20.80
2023-04-09T12:50:26.516Z,21.22
2023-04-09T12:52:53.448Z,21.45
2023-04-09T12:55:20.441Z,21.81
2023-04-09T12:57:51.323Z,21.81
2023-04-09T13:00:18.721Z,21.91
2023-04-09T13:02:46.629Z,21.98
2023-04-09T13:05:14.361Z,21.86
2023-04-09T13:07:44.183Z,21.75
2023-04-09T13:10:11.325Z,21.60
2023-04-09T13:12:38.322Z,21.09
2023-04-09T13:15:06.113Z,20.84
2023-04-09T13:17:33.176Z,21.09
2023-04-09T13:20:00.265Z,21.15
2023-04-09T13:22:27.300Z,21.10
2023-04-09T13:24:54.354Z,21.20
2023-04-09T13:27:21.327Z,21.38
2023-04-09T13:29:48.332Z,21.70
2023-04-09T13:32:15.630Z,21.77
2023-04-09T13:34:44.938Z,21.40
2023-04-09T13:37:12.014Z,21.38
2023-04-09T13:39:39.124Z,21.41
2023-04-09T13:42:13.237Z,21.60
2023-04-09T13:44:42.529Z,21.88
2023-04-09T13:47:11.329Z,21.76
2023-04-09T13:49:40.313Z,21.86
2023-04-09T13:52:07.530Z,21.84
2023-04-09T13:54:35.506Z,21.99
2023-04-09T13:57:05.544Z,22.12
2023-04-09T13:59:33.064Z,21.61
2023-04-09T14:02:01.965Z,21.51
2023-04-09T14:04:29.044Z,21.98
2023-04-09T14:06:57.318Z,22.01
2023-04-09T14:09:24.290Z,22.06
2023-04-09T14:11:51.428Z,21.95
2023-04-09T14:14:19.941Z,21.71
2023-04-09T14:16:48.347Z,21.63
2023-04-09T14:19:15.459Z,21.66
2023-04-09T14:21:42.620Z,21.88
2023-04-09T14:24:09.514Z,21.85
2023-04-09T14:26:37.294Z,21.67
2023-04-09T14:29:04.334Z,21.83
2023-04-09T14:31:31.435Z,22.00
2023-04-09T14:33:58.804Z,22.11
2023-04-09T14:36:27.321Z,22.10
2023-04-09T14:38:56.202Z,22.17
2023-04-09T14:41:24.808Z,22.52
2023-04-09T14:43:51.779Z,22.59
2023-04-09T14:46:20.252Z,22.49
2023-04-09T14:48:47.375Z,22.13
2023-04-09T14:51:14.436Z,21.88
2023-04-09T14:53:41.587Z,21.81
2023-04-09T14:56:09.778Z,21.71
2023-04-09T14:58:36.763Z,21.35
2023-04-09T15:01:04.660Z,21.45
2023-04-09T15:03:34.271Z,21.11
2023-04-09T15:06:01.438Z,21.08
2023-04-09T15:08:28.544Z,20.86
2023-04-09T15:10:55.539Z,20.81
2023-04-09T15:13:22.740Z,20.70
2023-04-09T15:15:51.434Z,20.75
2023-04-09T15:18:20.059Z,20.81
2023-04-09T15:20:52.306Z,20.79
2023-04-09T15:23:19.538Z,20.83
2023-04-09T15:25:46.837Z,20.75
2023-04-09T15:28:15.505Z,20.55
2023-04-09T15:30:43.509Z,20.32
2023-04-09T15:33:12.514Z,20.33
2023-04-09T15:35:39.841Z,20.37
2023-04-09T15:38:06.816Z,20.52
2023-04-09T15:40:33.808Z,20.85
2023-04-09T15:43:00.764Z,21.29
2023-04-09T15:45:30.564Z,21.69
2023-04-09T15:47:57.654Z,21.91
2023-04-09T15:50:25.065Z,22.11
2023-04-09T15:52:52.207Z,22.47
2023-04-09T15:55:21.705Z,22.54
2023-04-09T15:57:48.741Z,22.47
2023-04-09T16:00:16.337Z,22.43
2023-04-09T16:02:45.323Z,22.36
2023-04-09T16:05:13.608Z,22.06
2023-04-09T16:07:41.896Z,21.90
2023-04-09T16:10:09.554Z,21.70
2023-04-09T16:12:38.673Z,21.27
2023-04-09T16:15:07.126Z,21.00
2023-04-09T16:17:40.275Z,20.61
2023-04-09T16:20:08.843Z,20.17
2023-04-09T16:22:36.139Z,19.80
2023-04-09T16:25:03.264Z,19.51
2023-04-09T16:27:30.602Z,19.15
2023-04-09T16:29:57.636Z,18.76
2023-04-09T16:32:25.958Z,18.51
2023-04-09T16:34:56.102Z,18.37
2023-04-09T16:37:23.029Z,18.27
2023-04-09T16:39:50.076Z,18.01
2023-04-09T16:42:17.164Z,17.65
2023-04-09T16:44:44.129Z,17.48
2023-04-09T16:47:11.116Z,17.35
2023-04-09T16:49:38.008Z,17.21
2023-04-09T16:52:04.955Z,17.14
2023-04-09T16:54:32.075Z,17.09
2023-04-09T16:57:01.908Z,16.85
2023-04-09T16:59:28.923Z,16.72
2023-04-09T17:01:56.165Z,16.61
2023-04-09T17:04:23.562Z,16.53
2023-04-09T17:06:50.909Z,16.37
2023-04-09T17:09:22.137Z,16.31
2023-04-09T17:11:53.356Z,16.13
2023-04-09T17:14:20.293Z,16.20
2023-04-09T17:16:48.378Z,16.15
2023-04-09T17:19:15.575Z,16.06
2023-04-09T17:21:44.174Z,15.90
2023-04-09T17:24:12.137Z,15.80
2023-04-09T17:26:39.254Z,15.93
2023-04-09T17:29:06.331Z,15.81
2023-04-09T17:31:33.463Z,15.73
2023-04-09T17:34:01.379Z,15.79
2023-04-09T17:36:28.338Z,15.74
2023-04-09T17:38:56.699Z,15.68
2023-04-09T17:41:24.148Z,15.63
2023-04-09T17:43:52.651Z,15.58
2023-04-09T17:46:22.844Z,15.66
2023-04-09T17:48:51.200Z,15.66
2023-04-09T17:51:23.176Z,15.53
2023-04-09T17:53:58.651Z,15.35
2023-04-09T17:56:26.675Z,15.39
2023-04-09T17:58:55.112Z,15.32
2023-04-09T18:01:23.120Z,15.23
2023-04-09T18:03:51.292Z,15.26
2023-04-09T18:06:19.558Z,15.33
2023-04-09T18:08:52.898Z,15.27
2023-04-09T18:11:21.350Z,15.26
2023-04-09T18:13:49.833Z,15.21
2023-04-09T18:16:21.241Z,15.07
2023-04-09T18:18:54.031Z,15.06
2023-04-09T18:21:24.405Z,14.79
2023-04-09T18:23:56.267Z,14.69
2023-04-09T18:26:24.635Z,14.91
2023-04-09T18:28:52.128Z,14.96
2023-04-09T18:31:20.802Z,14.85
2023-04-09T18:33:54.811Z,15.02
2023-04-09T18:36:28.462Z,14.96
2023-04-09T18:39:00.810Z,15.02
2023-04-09T18:41:30.956Z,14.73
2023-04-09T18:43:58.014Z,14.82
2023-04-09T18:46:28.842Z,14.76
2023-04-09T18:48:59.440Z,14.58
2023-04-09T18:51:31.799Z,14.67
2023-04-09T18:54:00.882Z,14.60
2023-04-09T18:56:53.045Z,14.54
2023-04-09T18:59:22.887Z,14.51
2023-04-09T19:01:53.235Z,14.64
2023-04-09T19:04:24.194Z,14.80
2023-04-09T19:06:52.019Z,14.59
2023-04-09T19:09:22.043Z,14.48
2023-04-09T19:11:50.500Z,14.61
2023-04-09T19:14:17.521Z,14.54
2023-04-09T19:16:45.649Z,14.47
2023-04-09T19:19:14.011Z,14.44
2023-04-09T19:21:42.259Z,14.51
2023-04-09T19:24:10.311Z,14.42
2023-04-09T19:26:39.328Z,14.42
2023-04-09T19:29:07.276Z,14.44
2023-04-09T19:31:34.970Z,14.50
2023-04-09T19:34:03.015Z,14.58
2023-04-09T19:36:36.940Z,14.48
2023-04-09T19:39:07.831Z,14.35
2023-04-09T19:41:58.676Z,14.30
2023-04-09T19:44:26.934Z,14.26
2023-04-09T19:46:56.489Z,14.43
2023-04-09T19:49:23.946Z,14.28
2023-04-09T19:51:51.401Z,14.29
2023-04-09T19:54:18.742Z,14.31
2023-04-09T19:56:48.251Z,14.20
2023-04-09T19:59:15.310Z,14.13
2023-04-09T20:01:43.580Z,14.27
2023-04-09T20:04:14.119Z,14.19
2023-04-09T20:06:47.473Z,14.11
2023-04-09T20:09:27.246Z,14.08
2023-04-09T20:11:55.731Z,14.07
2023-04-09T20:14:27.048Z,14.01
2023-04-09T20:16:54.746Z,13.91
2023-04-09T20:19:25.317Z,13.78
2023-04-09T20:21:52.937Z,13.91
2023-04-09T20:24:22.413Z,13.86
2023-04-09T20:26:52.487Z,13.84
2023-04-09T20:29:20.498Z,13.84
2023-04-09T20:31:47.820Z,13.85
2023-04-09T20:34:15.385Z,13.79
2023-04-09T20:36:47.719Z,13.83
2023-04-09T20:39:18.241Z,13.82
2023-04-09T20:41:48.293Z,13.86
2023-04-09T20:44:16.735Z,13.87
2023-04-09T20:46:45.087Z,13.87
2023-04-09T20:49:13.836Z,13.90
2023-04-09T20:51:42.798Z,13.83
2023-04-09T20:54:10.148Z,13.80
2023-04-09T20:56:41.590Z,13.76
2023-04-09T20:59:09.149Z,13.67
2023-04-09T21:01:37.516Z,13.55
2023-04-09T21:04:05.001Z,13.62
2023-04-09T21:06:34.513Z,13.59
2023-04-09T21:09:03.084Z,13.68
2023-04-09T21:11:31.023Z,13.76
2023-04-09T21:14:00.223Z,13.81
2023-04-09T21:16:30.508Z,13.81
2023-04-09T21:18:58.895Z,13.70
2023-04-09T21:21:30.324Z,13.66
2023-04-09T21:23:57.278Z,13.57
2023-04-09T21:26:25.100Z,13.46
2023-04-09T21:28:53.559Z,13.51
2023-04-09T21:31:26.004Z,13.48
2023-04-09T21:33:55.860Z,13.58
2023-04-09T21:36:27.355Z,13.29
2023-04-09T21:38:54.891Z,13.19
2023-04-09T21:41:23.665Z,13.19
2023-04-09T21:43:51.187Z,13.21
2023-04-09T21:46:18.368Z,13.13
2023-04-09T21:48:45.947Z,13.14
2023-04-09T21:51:14.396Z,13.16
2023-04-09T21:53:41.556Z,13.08
2023-04-09T21:56:08.959Z,13.15
2023-04-09T21:58:35.909Z,13.14
2023-04-09T22:01:02.883Z,13.12
2023-04-09T22:03:30.120Z,13.17
2023-04-09T22:05:57.292Z,13.21
2023-04-09T22:08:24.630Z,13.20
2023-04-09T22:10:55.193Z,13.12
2023-04-09T22:13:22.209Z,13.11
2023-04-09T22:15:49.134Z,12.97
2023-04-09T22:18:16.857Z,12.90
2023-04-09T22:20:46.322Z,13.00
2023-04-09T22:23:13.803Z,13.14
2023-04-09T22:25:40.752Z,13.14
2023-04-09T22:28:08.237Z,13.33
2023-04-09T22:30:35.518Z,13.29
2023-04-09T22:33:02.738Z,13.01
2023-04-09T22:35:29.868Z,12.90
2023-04-09T22:37:56.835Z,12.90
2023-04-09T22:40:23.824Z,12.80
2023-04-09T22:42:50.946Z,12.84
2023-04-09T22:45:17.950Z,12.81
2023-04-09T22:47:45.031Z,12.75
2023-04-09T22:50:13.478Z,12.66
2023-04-09T22:52:40.584Z,12.64
2023-04-09T22:55:10.225Z,12.70
2023-04-09T22:57:38.417Z,12.73
2023-04-09T23:00:06.329Z,12.64
2023-04-09T23:02:33.502Z,12.65
2023-04-09T23:05:02.048Z,12.67
2023-04-09T23:07:29.159Z,12.66
2023-04-09T23:09:56.267Z,12.66
2023-04-09T23:12:23.349Z,12.62
2023-04-09T23:14:51.203Z,12.60
2023-04-09T23:17:22.448Z,12.62
2023-04-09T23:19:49.470Z,12.58
2023-04-09T23:22:16.513Z,12.56
2023-04-09T23:24:44.140Z,12.54
2023-04-09T23:27:11.305Z,12.51
2023-04-09T23:29:38.599Z,12.45
2023-04-09T23:32:05.726Z,12.40
2023-04-09T23:34:32.822Z,12.39
2023-04-09T23:36:59.922Z,12.33
2023-04-09T23:39:27.114Z,12.22
2023-04-09T23:41:54.110Z,12.98
2023-04-09T23:44:21.044Z,12.77
2023-04-09T23:46:48.035Z,12.27
2023-04-09T23:49:16.260Z,12.06
2023-04-09T23:51:43.181Z,11.77
2023-04-09T23:54:10.602Z,11.54
2023-04-09T23:56:38.026Z,11.37
2023-04-09T23:59:04.972Z,11.51
